Latest Weather Observations for Adelaide (West Terrace / ngayirdapira)

IDS60901

Issued at 8:41 am CST Sunday 16 June 2019 (issued every 10 minutes, with the page automatically refreshed every 10 minutes)

About weather observations | Map of Adelaide area stations | Latest observations for Adelaide area | Other Formats
Station Details ID: 023000 Name: ADELAIDE (WEST TERRACE / NGAYIRDAPIRA) Lat: -34.93 Lon: 138.58 Height: 29.32 m
Data from the previous 72 hours. | See also: Recent months at Adelaide (West Terrace / ngayirdapira)
Date/Time
CST
Temp
°C
App
Temp
°C
Dew
Point
°C
Rel
Hum
%
Delta-T
°C
Wind Press
QNH
hPa
Press
MSL
hPa
Rain since
9am
mm
Dir  Spd
km/h
Gust
km/h
Spd
kts
Gust
kts
16/08:30am 12.3 9.6 5.5 63 3.2 NE 9 13 5 7 1021.6 1021.6 0.0
16/08:00am 10.1 7.8 5.7 74 2.0 NNE 7 11 4 6 1021.3 1021.3 0.0
16/07:30am 10.3 7.5 5.3 71 2.3 NE 9 13 5 7 1020.7 1020.7 0.0
16/07:00am 11.2 8.4 5.3 67 2.7 NE 9 15 5 8 1020.4 1020.4 0.0
16/06:30am 11.3 8.6 5.4 67 2.7 NE 9 15 5 8 1020.2 1020.2 0.0
16/06:00am 12.1 8.9 5.3 63 3.1 NE 11 17 6 9 1020.0 1020.0 0.0
16/05:30am 12.3 9.6 5.5 63 3.2 NE 9 13 5 7 1019.7 1019.7 0.0
16/05:00am 12.4 9.2 5.3 62 3.3 NE 11 15 6 8 1019.5 1019.5 0.0
16/04:30am 12.6 9.5 5.5 62 3.3 NE 11 17 6 9 1019.4 1019.4 0.0
16/04:00am 12.5 9.4 5.4 62 3.3 NE 11 17 6 9 1019.4 1019.4 0.0
16/03:30am 12.3 9.2 5.5 63 3.2 NE 11 15 6 8 1019.6 1019.6 0.0
16/03:00am 12.2 9.2 5.8 65 3.0 NE 11 17 6 9 1019.7 1019.7 0.0
16/02:30am 12.2 9.2 6.0 66 2.9 NE 11 15 6 8 1019.7 1019.7 0.0
16/02:00am 12.4 9.8 6.2 66 2.9 NE 9 15 5 8 1019.7 1019.7 0.0
16/01:30am 12.6 10.0 6.2 65 3.0 NNE 9 13 5 7 1019.8 1019.8 0.0
16/01:00am 12.7 10.1 6.1 64 3.1 NNE 9 13 5 7 1019.9 1019.9 0.0
16/12:30am 12.8 10.5 5.7 62 3.3 N 7 13 4 7 1020.1 1020.1 0.0
16/12:00am 13.1 10.4 5.5 60 3.5 NNE 9 17 5 9 1019.9 1019.9 0.0
 
Date/Time
CST
Temp
°C
App
Temp
°C
Dew
Point
°C
Rel
Hum
%
Delta-T
°C
Wind Press
QNH
hPa
Press
MSL
hPa
Rain since
9am
mm
Dir  Spd
km/h
Gust
km/h
Spd
kts
Gust
kts
15/11:30pm 13.0 10.4 6.1 63 3.3 NNE 9 15 5 8 1020.0 1020.0 0.0
15/11:00pm 12.9 9.6 6.3 64 3.1 NE 13 17 7 9 1020.0 1020.0 0.0
15/10:30pm 12.7 9.4 6.5 66 2.9 NE 13 20 7 11 1020.1 1020.1 0.0
15/10:00pm 12.6 10.2 6.9 68 2.7 NE 9 15 5 8 1020.3 1020.3 0.0
15/09:30pm 13.1 10.2 6.7 65 3.1 NNE 11 19 6 10 1020.3 1020.3 0.0
15/09:00pm 13.2 11.4 7.9 70 2.6 NNE 7 11 4 6 1020.3 1020.3 0.0
15/08:30pm 13.3 11.6 8.4 72 2.4 NE 7 11 4 6 1020.5 1020.5 0.0
15/08:00pm 13.6 11.9 8.4 71 2.6 NE 7 11 4 6 1020.5 1020.5 0.0
15/07:30pm 14.4 12.7 8.4 67 3.0 NNE 7 11 4 6 1020.4 1020.4 0.0
15/07:00pm 14.2 12.6 8.6 69 2.8 NNE 7 11 4 6 1020.3 1020.3 0.0
15/06:30pm 14.4 12.8 8.6 68 2.9 N 7 11 4 6 1020.2 1020.2 0.0
15/06:00pm 14.4 12.8 8.6 68 2.9 N 7 9 4 5 1020.2 1020.2 0.0
15/05:30pm 14.6 12.6 8.5 67 3.1 NNW 9 15 5 8 1020.2 1020.2 0.0
15/05:00pm 14.8 12.1 9.0 68 3.0 NNW 13 20 7 11 1020.1 1020.1 0.0
15/04:30pm 15.2 12.2 9.3 68 3.0 NNW 15 22 8 12 1020.0 1020.0 0.0
15/04:00pm 15.2 11.9 9.6 69 2.9 NNW 17 22 9 12 1019.9 1019.9 0.0
15/03:30pm 15.3 12.9 9.9 70 2.8 NNW 13 24 7 13 1019.9 1019.9 0.0
15/03:00pm 15.2 12.0 9.8 70 2.8 NNW 17 24 9 13 1020.0 1020.0 0.0
15/02:30pm 15.3 11.8 10.1 71 2.7 NNW 19 26 10 14 1020.1 1020.1 0.0
15/02:00pm 15.3 12.2 10.3 72 2.6 NW 17 24 9 13 1020.2 1020.2 0.0
15/01:30pm 14.9 13.2 11.1 78 2.0 NNW 11 19 6 10 1020.6 1020.6 0.0
15/01:00pm 14.6 12.0 10.8 78 2.0 N 15 20 8 11 1020.9 1020.9 0.0
15/12:30pm 15.0 12.7 10.6 75 2.3 NNW 13 20 7 11 1021.0 1021.0 0.0
15/12:00pm 14.2 11.9 10.4 78 2.0 N 13 20 7 11 1021.4 1021.4 0.0
15/11:58am 14.2 11.9 10.4 78 2.0 N 13 20 7 11 1021.4 1021.4 0.0
15/11:30am 14.4 13.2 11.6 83 1.5 N 9 17 5 9 1021.9 1021.9 0.0
15/11:00am 13.4 11.6 10.9 85 1.3 N 11 19 6 10 1022.3 1022.3 0.0
15/10:30am 12.8 11.3 10.7 87 1.1 N 9 15 5 8 1022.4 1022.4 0.0
15/10:00am 12.4 10.8 10.3 87 1.1 NNE 9 15 5 8 1022.5 1022.5 0.0
15/09:30am 12.2 10.6 10.1 87 1.1 N 9 15 5 8 1022.4 1022.4 0.0
15/09:00am 11.9 9.8 9.8 87 1.1 NNE 11 17 6 9 1022.2 1022.2 1.4
15/08:30am 11.5 9.7 9.4 87 1.1 N 9 15 5 8 1022.0 1022.0 1.4
15/08:00am 11.5 9.7 9.6 88 1.0 NNE 9 15 5 8 1021.6 1021.6 1.4
15/07:30am 11.5 10.2 9.9 90 0.8 NNE 7 13 4 7 1021.6 1021.6 1.4
15/07:00am 11.2 9.1 9.8 91 0.7 NE 11 17 6 9 1021.2 1021.2 1.4
15/06:30am 10.9 8.8 9.7 92 0.6 NNE 11 15 6 8 1021.3 1021.3 1.4
15/06:14am 11.0 9.3 9.8 92 0.6 NNE 9 13 5 7 1021.4 1021.4 1.4
15/06:11am 11.0 9.3 9.8 92 0.6 N 9 15 5 8 1021.4 1021.4 1.4
15/06:00am 11.2 9.1 9.8 91 0.7 NNE 11 15 6 8 1021.2 1021.2 1.4
15/05:30am 11.5 10.2 10.1 91 0.7 N 7 11 4 6 1021.1 1021.1 1.2
15/05:00am 11.6 9.9 10.0 90 0.8 N 9 17 5 9 1020.8 1020.8 1.2
15/04:30am 11.4 9.7 9.7 89 0.9 NE 9 13 5 7 1020.7 1020.7 1.2
15/04:00am 11.2 9.4 9.5 89 0.9 NNE 9 13 5 7 1020.7 1020.7 1.2
15/03:41am 11.2 9.4 9.3 88 1.0 NNE 9 15 5 8 1020.7 1020.7 1.2
15/03:36am 11.2 9.4 9.3 88 1.0 NNE 9 15 5 8 1020.7 1020.7 1.2
15/03:30am 11.3 9.4 9.2 87 1.0 N 9 15 5 8 1020.7 1020.7 1.0
15/03:23am 11.4 9.5 9.0 85 1.2 N 9 15 5 8 1020.8 1020.8 1.0
15/03:00am 11.7 9.9 9.3 85 1.2 NNE 9 15 5 8 1020.7 1020.7 1.0
15/02:30am 11.5 9.6 9.2 86 1.1 NNE 9 15 5 8 1020.8 1020.8 1.0
15/02:00am 11.5 9.8 9.9 90 0.8 NNE 9 13 5 7 1020.8 1020.8 1.0
15/01:30am 12.0 10.4 10.1 88 1.0 NNE 9 13 5 7 1021.0 1021.0 0.8
15/01:01am 12.1 10.9 10.3 89 0.9 N 7 11 4 6 1020.9 1020.9 0.8
15/01:00am 12.1 10.9 10.3 89 0.9 N 7 11 4 6 1020.9 1020.9 0.8
15/12:30am 12.5 11.0 10.7 89 0.9 N 9 15 5 8 1021.0 1021.0 0.8
15/12:05am 13.1 12.2 11.5 90 0.8 N 7 11 4 6 1020.9 1020.9 0.6
15/12:00am 13.2 12.6 11.6 90 0.8 N 6 11 3 6 1020.9 1020.9 0.6
 
Date/Time
CST
Temp
°C
App
Temp
°C
Dew
Point
°C
Rel
Hum
%
Delta-T
°C
Wind Press
QNH
hPa
Press
MSL
hPa
Rain since
9am
mm
Dir  Spd
km/h
Gust
km/h
Spd
kts
Gust
kts
14/11:30pm 13.3 13.8 11.7 90 0.9 CALM 0 0 0 0 1021.1 1021.1 0.6
14/11:00pm 13.4 13.9 11.6 89 1.0 CALM 0 6 0 3 1021.2 1021.2 0.6
14/10:30pm 13.7 13.4 11.4 86 1.2 WNW 4 7 2 4 1021.2 1021.2 0.6
14/10:00pm 14.1 12.8 11.4 84 1.4 WNW 9 13 5 7 1021.1 1021.1 0.6
14/09:30pm 14.1 13.2 11.4 84 1.4 WNW 7 13 4 7 1021.2 1021.2 0.6
14/09:00pm 14.3 12.7 11.6 84 1.4 NW 11 17 6 9 1021.2 1021.2 0.6
14/08:30pm 14.3 13.4 11.3 82 1.6 NW 7 11 4 6 1021.1 1021.1 0.6
14/08:00pm 14.2 13.4 11.0 81 1.7 NW 6 13 3 7 1020.9 1020.9 0.6
14/07:30pm 14.3 13.6 11.3 82 1.6 NW 6 9 3 5 1020.8 1020.8 0.6
14/07:00pm 14.3 13.5 11.8 85 1.3 NW 7 11 4 6 1020.6 1020.6 0.6
14/06:30pm 14.4 12.8 11.4 82 1.6 NW 11 15 6 8 1020.4 1020.4 0.6
14/06:00pm 14.5 13.3 11.5 82 1.6 NW 9 19 5 10 1020.3 1020.3 0.6
14/05:30pm 14.9 13.1 10.9 77 2.1 NW 11 19 6 10 1020.1 1020.1 0.6
14/05:00pm 15.0 12.7 10.6 75 2.3 NW 13 20 7 11 1019.9 1019.9 0.6
14/04:30pm 15.8 13.2 10.8 72 2.7 NW 15 22 8 12 1019.8 1019.8 0.6
14/04:00pm 15.7 12.8 11.1 74 2.5 NW 17 24 9 13 1019.7 1019.7 0.6
14/03:30pm 16.1 12.9 11.3 73 2.6 NW 19 26 10 14 1019.7 1019.7 0.6
14/03:00pm 15.9 13.2 11.7 76 2.3 NW 17 22 9 12 1019.6 1019.6 0.6
14/02:58pm 15.9 13.3 11.9 77 2.2 NW 17 22 9 12 1019.7 1019.7 0.6
14/02:40pm 14.9 13.0 11.9 82 1.6 NW 13 22 7 12 1019.8 1019.8 0.4
14/02:30pm 15.7 13.2 11.1 74 2.5 NW 15 20 8 11 1019.8 1019.8 0.0
14/02:00pm 16.6 13.6 10.7 68 3.1 NW 17 26 9 14 1019.7 1019.7 0.0
14/01:30pm 16.2 14.0 9.2 63 3.6 WNW 11 19 6 10 1019.8 1019.8 0.0
14/01:00pm 15.8 14.3 10.6 71 2.8 N 9 13 5 7 1019.9 1019.9 0.0
14/12:30pm 14.5 12.6 10.5 77 2.1 N 11 15 6 8 1020.2 1020.2 0.0
14/12:00pm 14.4 12.3 11.0 80 1.8 WNW 13 20 7 11 1020.6 1020.6 0.0
14/11:44am 14.8 12.4 11.4 80 1.8 WNW 15 20 8 11 1020.6 1020.6 0.0
14/11:30am 15.4 13.7 12.5 83 1.6 WNW 13 19 7 10 1020.6 1020.6 0.0
14/11:00am 15.6 13.5 12.5 82 1.7 WNW 15 22 8 12 1020.8 1020.8 0.0
14/10:30am 14.8 12.2 12.1 84 1.5 WNW 17 28 9 15 1020.9 1020.9 0.0
14/10:00am 14.4 12.3 12.4 88 1.1 NW 15 22 8 12 1021.0 1021.0 0.0
14/09:30am 13.3 11.8 11.9 91 0.7 NW 11 19 6 10 1020.9 1020.9 0.0
14/09:00am 12.4 10.7 11.3 93 0.6 NNW 11 17 6 9 1020.7 1020.7 0.2
14/08:30am 11.7 9.5 10.8 94 0.5 N 13 20 7 11 1020.6 1020.6 0.2
14/08:00am 11.5 9.5 10.2 92 0.7 N 11 19 6 10 1020.5 1020.5 0.0
14/07:30am 11.3 9.3 10.0 92 0.7 N 11 17 6 9 1020.2 1020.2 0.0
14/07:25am 11.2 9.5 10.0 92 0.6 N 9 13 5 7 1020.2 1020.2 0.0
14/07:18am 11.2 9.5 10.0 92 0.6 N 9 13 5 7 1020.2 1020.2 0.0
14/07:00am 11.1 9.4 9.9 92 0.6 N 9 13 5 7 1020.0 1020.0 0.0
14/06:30am 11.1 9.0 9.9 92 0.6 N 11 15 6 8 1019.7 1019.7 0.0
14/06:00am 11.0 8.9 9.8 92 0.6 N 11 17 6 9 1019.5 1019.5 0.0
14/05:30am 10.9 8.8 9.8 93 0.6 N 11 15 6 8 1019.3 1019.3 0.0
14/05:20am 10.9 8.8 9.8 93 0.6 N 11 17 6 9 1019.3 1019.3 0.0
14/05:00am 11.1 9.4 9.9 92 0.6 N 9 13 5 7 1019.3 1019.3 0.0
14/04:58am 11.1 9.4 9.9 92 0.6 N 9 15 5 8 1019.3 1019.3 0.0
14/04:30am 11.4 9.4 10.1 92 0.7 N 11 17 6 9 1019.3 1019.3 0.0
14/04:00am 11.4 9.7 10.0 91 0.7 N 9 15 5 8 1019.4 1019.4 0.0
14/03:51am 11.5 9.9 10.1 91 0.7 N 9 15 5 8 1019.3 1019.3 0.0
14/03:30am 11.8 10.2 10.2 90 0.8 N 9 15 5 8 1019.3 1019.3 0.0
14/03:00am 12.0 10.1 10.4 90 0.8 NNE 11 17 6 9 1019.5 1019.5 0.0
14/02:30am 12.2 10.8 10.8 91 0.7 NNE 9 13 5 7 1019.4 1019.4 0.0
14/02:00am 12.0 10.5 10.6 91 0.7 NE 9 13 5 7 1019.5 1019.5 0.0
14/01:30am 12.0 10.5 10.4 90 0.8 NE 9 13 5 7 1019.6 1019.6 0.0
14/01:00am 12.1 11.0 10.5 90 0.8 NNE 7 13 4 7 1019.7 1019.7 0.0
14/12:30am 12.4 10.9 10.6 89 0.9 NNE 9 13 5 7 1019.9 1019.9 0.0
14/12:00am 12.3 10.9 10.9 91 0.7 N 9 11 5 6 1020.0 1020.0 0.0
 
Date/Time
CST
Temp
°C
App
Temp
°C
Dew
Point
°C
Rel
Hum
%
Delta-T
°C
Wind Press
QNH
hPa
Press
MSL
hPa
Rain since
9am
mm
Dir  Spd
km/h
Gust
km/h
Spd
kts
Gust
kts
13/11:30pm 12.3 10.9 10.9 91 0.7 NNE 9 15 5 8 1020.1 1020.1 0.0
13/11:00pm 12.4 11.0 11.0 91 0.7 N 9 13 5 7 1020.1 1020.1 0.0
13/10:30pm 12.5 11.5 10.9 90 0.8 NNE 7 13 4 7 1020.2 1020.2 0.0
13/10:00pm 12.5 11.5 10.9 90 0.8 N 7 11 4 6 1020.0 1020.0 0.0
13/09:30pm 12.5 11.0 10.7 89 0.9 NE 9 13 5 7 1020.0 1020.0 0.0
13/09:00pm 12.8 11.8 11.0 89 0.9 NE 7 11 4 6 1019.9 1019.9 0.0
13/08:30pm 13.0 12.2 11.2 89 0.9 NNW 6 9 3 5 1019.8 1019.8 0.0
13/08:00pm 13.0 12.1 11.2 89 0.9 NW 7 11 4 6 1019.8 1019.8 0.0
13/07:30pm 13.0 12.9 10.9 87 1.1 NW 2 7 1 4 1019.4 1019.4 0.0
13/07:00pm 13.2 12.7 10.9 86 1.2 NW 4 6 2 3 1019.3 1019.3 0.0
13/06:30pm 13.5 13.0 10.7 83 1.5 NW 4 9 2 5 1019.0 1019.0 0.0
13/06:00pm 14.0 12.7 11.2 83 1.5 NW 9 15 5 8 1019.1 1019.1 0.0
13/05:30pm 14.5 12.4 11.1 80 1.8 NW 13 17 7 9 1018.9 1018.9 0.0
13/05:00pm 15.1 12.9 10.9 76 2.2 NW 13 20 7 11 1018.8 1018.8 0.0
13/04:30pm 15.5 12.8 10.5 72 2.6 WNW 15 26 8 14 1018.4 1018.4 0.0
13/04:00pm 15.6 13.2 10.2 70 2.8 NW 13 22 7 12 1018.3 1018.3 0.0
13/03:30pm 16.0 13.0 10.5 70 2.9 WNW 17 26 9 14 1018.2 1018.2 0.0
13/03:00pm 16.3 13.6 10.4 68 3.1 WNW 15 22 8 12 1018.0 1018.0 0.0
13/02:30pm 16.5 13.3 11.2 71 2.8 WNW 19 28 10 15 1018.1 1018.1 0.0
13/02:00pm 16.4 13.6 11.3 72 2.8 NW 17 24 9 13 1018.2 1018.2 0.0
13/01:30pm 16.1 12.7 11.3 73 2.6 WNW 20 32 11 17 1018.7 1018.7 0.0
13/01:06pm 16.0 13.4 12.0 77 2.2 WNW 17 26 9 14 1018.9 1018.9 0.0
13/01:00pm 15.6 12.9 11.8 78 2.1 NW 17 26 9 14 1019.0 1019.0 0.0
13/12:30pm 15.3 12.3 12.1 81 1.7 NW 19 26 10 14 1019.0 1019.0 0.0
13/12:05pm 14.8 12.2 11.9 83 1.6 NW 17 24 9 13 1019.1 1019.1 0.0
13/12:00pm 14.8 12.2 11.9 83 1.6 NNW 17 24 9 13 1019.0 1019.0 0.0
13/11:53am 15.0 12.4 12.0 82 1.6 NW 17 24 9 13 1019.1 1019.1 0.0
13/11:30am 15.0 12.8 12.0 82 1.6 NW 15 22 8 12 1019.1 1019.1 0.0
13/11:00am 13.9 11.9 11.4 85 1.3 NNW 13 20 7 11 1019.3 1019.3 0.0
13/10:30am 13.1 11.0 11.0 87 1.1 NNW 13 20 7 11 1019.4 1019.4 0.0
13/10:01am 12.4 10.5 10.5 88 1.0 N 11 20 6 11 1019.2 1019.2 0.0
13/10:00am 12.5 10.6 10.6 88 1.0 N 11 17 6 9 1019.2 1019.2 0.0
13/09:37am 12.9 10.8 11.1 89 0.9 N 13 19 7 10 1019.1 1019.1 0.0
13/09:30am 12.2 9.9 10.4 89 0.9 N 13 19 7 10 1019.0 1019.0 0.0
13/09:00am 11.5 9.5 10.2 92 0.7 N 11 19 6 10 1019.1 1019.1 1.2

Latest Capital City Observations: Canberra | Sydney | Melbourne | Brisbane | Adelaide | Perth | Hobart | Darwin

Other formats

Comma delimited format used in spreadsheet applications
http://www.bom.gov.au/fwo/IDS60901/IDS60901.94648.axf

JavaScript Object Notation format (JSON) in row-major order
http://www.bom.gov.au/fwo/IDS60901/IDS60901.94648.json

Data quality

Most of these data are generated automatically and are frequently updated. Quality checks on data are not normally performed. It is possible for incorrect values to appear. Refer to information at About Latest Weather Observations and please check the disclaimer before using these data.